Time;durP1;ratioP1;P1;durP2;ratioP2;P2;SDS_P1;SDS_P2;PMS_P1;PMS_P2;Temp;Humidity;BMP_temperature;BMP_pressure;BME280_temperature;BME280_humidity;BME280_pressure;Samples;Min_cycle;Max_cycle;Signal;HPM_P1;HPM_P2
2024/01/12 00:00:16;;;;;;;29.83;27.67;;;;;;;-2.27;100.00;103231.66;5006046;28;20568;-35
2024/01/12 00:02:45;;;;;;;31.10;28.73;;;;;;;-2.28;100.00;103224.69;5002479;28;20496;-35
2024/01/12 00:05:13;;;;;;;30.43;28.37;;;;;;;-2.30;100.00;103216.91;5009594;28;20438;-35
2024/01/12 00:07:41;;;;;;;29.23;27.50;;;;;;;-2.34;100.00;103210.09;5005747;28;20449;-38
2024/01/12 00:10:09;;;;;;;30.50;28.37;;;;;;;-2.34;100.00;103219.69;5013765;28;20457;-40
2024/01/12 00:12:37;;;;;;;30.50;28.13;;;;;;;-2.36;100.00;103222.34;4996609;28;20533;-35
2024/01/12 00:15:06;;;;;;;30.33;28.30;;;;;;;-2.35;100.00;103226.66;5012153;28;20516;-37
2024/01/12 00:17:34;;;;;;;32.10;30.00;;;;;;;-2.35;100.00;103228.41;5002302;28;20539;-35
2024/01/12 00:20:05;;;;;;;31.20;29.10;;;;;;;-2.36;100.00;103232.78;4993480;28;20524;-35
2024/01/12 00:22:33;;;;;;;31.03;28.63;;;;;;;-2.41;100.00;103221.66;5003408;28;20939;-36
2024/01/12 00:25:00;;;;;;;29.97;28.07;;;;;;;-2.44;100.00;103233.97;5007184;28;20442;-37
2024/01/12 00:27:28;;;;;;;31.27;29.07;;;;;;;-2.47;100.00;103234.06;5010173;28;20457;-37
2024/01/12 00:29:56;;;;;;;31.77;29.30;;;;;;;-2.50;100.00;103235.03;5004595;28;20430;-35
2024/01/12 00:32:24;;;;;;;30.60;28.30;;;;;;;-2.50;100.00;103235.03;5013564;28;20441;-36
2024/01/12 00:34:51;;;;;;;30.13;27.93;;;;;;;-2.52;100.00;103231.63;5004588;28;20434;-35
2024/01/12 00:37:21;;;;;;;29.97;27.43;;;;;;;-2.50;100.00;103236.78;5013549;28;20448;-37
2024/01/12 00:39:48;;;;;;;28.30;26.57;;;;;;;-2.51;100.00;103245.53;4996962;28;20914;-35
2024/01/12 00:42:16;;;;;;;29.63;27.67;;;;;;;-2.52;100.00;103229.00;5013710;28;20437;-35
2024/01/12 00:44:44;;;;;;;30.37;28.27;;;;;;;-2.51;100.00;103233.31;5012738;28;20567;-36
2024/01/12 00:47:11;;;;;;;28.23;26.00;;;;;;;-2.52;100.00;103225.53;5013094;28;20461;-36
2024/01/12 00:49:39;;;;;;;29.33;27.27;;;;;;;-2.56;100.00;103219.56;5012157;28;20457;-39
2024/01/12 00:52:07;;;;;;;29.33;27.10;;;;;;;-2.61;100.00;103221.50;5005172;28;21138;-36
2024/01/12 00:54:36;;;;;;;29.37;27.20;;;;;;;-2.64;100.00;103213.75;4995747;28;20477;-36
2024/01/12 00:57:04;;;;;;;29.10;27.30;;;;;;;-2.65;100.00;103216.41;5003271;28;20453;-36
2024/01/12 00:59:32;;;;;;;27.70;25.60;;;;;;;-2.67;100.00;103220.84;5010686;28;20546;-37
2024/01/12 01:02:00;;;;;;;28.47;26.47;;;;;;;-2.68;100.00;103213.88;5011551;28;20425;-36
2024/01/12 01:04:28;;;;;;;29.27;27.37;;;;;;;-2.71;100.00;103207.00;5012021;28;20472;-38
2024/01/12 01:06:56;;;;;;;29.33;27.43;;;;;;;-2.71;100.00;103199.19;5011459;28;20519;-42
2024/01/12 01:09:24;;;;;;;28.47;26.57;;;;;;;-2.70;100.00;103211.34;5011087;28;20504;-36
2024/01/12 01:11:53;;;;;;;28.20;26.40;;;;;;;-2.68;100.00;103206.06;5011842;28;20813;-39
2024/01/12 01:14:24;;;;;;;29.37;27.60;;;;;;;-2.66;100.00;103202.50;5010922;28;20439;-35
2024/01/12 01:16:53;;;;;;;28.80;26.90;;;;;;;-2.63;100.00;103201.56;5003478;28;21059;-36
2024/01/12 01:19:21;;;;;;;28.53;26.60;;;;;;;-2.63;100.00;103197.19;5010772;28;20473;-36
2024/01/12 01:21:49;;;;;;;29.93;27.93;;;;;;;-2.64;100.00;103200.69;4993911;28;20433;-35
2024/01/12 01:24:16;;;;;;;29.10;26.70;;;;;;;-2.66;100.00;103196.44;5010663;28;20495;-36
2024/01/12 01:26:44;;;;;;;28.90;26.97;;;;;;;-2.67;100.00;103199.94;5009599;28;20453;-36
2024/01/12 01:29:13;;;;;;;28.70;26.80;;;;;;;-2.71;100.00;103199.19;5010895;28;20449;-36
2024/01/12 01:31:41;;;;;;;29.27;27.27;;;;;;;-2.75;100.00;103189.75;5010562;28;20529;-36
2024/01/12 01:34:09;;;;;;;28.53;26.80;;;;;;;-2.77;100.00;103194.16;5013045;28;20429;-36
2024/01/12 01:36:37;;;;;;;28.20;26.40;;;;;;;-2.79;100.00;103195.97;5003046;28;20508;-37
2024/01/12 01:39:05;;;;;;;30.67;28.67;;;;;;;-2.81;100.00;103188.19;4998656;28;20472;-36
2024/01/12 01:41:32;;;;;;;28.30;26.30;;;;;;;-2.83;100.00;103182.16;5003368;28;20484;-36
2024/01/12 01:44:00;;;;;;;29.60;27.10;;;;;;;-2.87;100.00;103172.72;4998298;28;20929;-37
2024/01/12 01:46:30;;;;;;;30.37;28.17;;;;;;;-2.89;100.00;103179.75;5012438;28;20459;-37
2024/01/12 01:48:58;;;;;;;28.83;27.13;;;;;;;-2.88;100.00;103178.00;4992079;28;20493;-39
2024/01/12 01:51:26;;;;;;;29.27;27.47;;;;;;;-2.92;100.00;103174.63;4992558;28;20438;-35
2024/01/12 01:53:54;;;;;;;29.73;27.67;;;;;;;-2.95;100.00;103166.91;5008027;28;20521;-36
2024/01/12 01:56:23;;;;;;;29.73;27.67;;;;;;;-2.99;100.00;103162.72;5008298;28;20457;-36
2024/01/12 01:58:51;;;;;;;29.13;27.17;;;;;;;-3.02;100.00;103155.00;4986285;28;20832;-37
2024/01/12 02:01:20;;;;;;;28.43;26.57;;;;;;;-3.04;100.00;103151.56;5009921;28;20851;-36
2024/01/12 02:03:49;;;;;;;28.57;26.53;;;;;;;-3.06;100.00;103152.50;5010826;28;20441;-38
2024/01/12 02:06:17;;;;;;;30.40;28.37;;;;;;;-3.07;100.00;103129.91;5011190;28;20481;-37
2024/01/12 02:08:47;;;;;;;29.70;27.80;;;;;;;-3.07;100.00;103132.53;5007595;28;20533;-36
2024/01/12 02:11:15;;;;;;;29.40;27.30;;;;;;;-3.08;100.00;103141.28;4999274;28;20437;-36
2024/01/12 02:13:43;;;;;;;30.67;28.70;;;;;;;-3.11;100.00;103133.56;5010462;28;20539;-39
2024/01/12 02:16:11;;;;;;;30.97;29.00;;;;;;;-3.13;100.00;103130.97;5002891;28;20515;-39
2024/01/12 02:18:39;;;;;;;30.53;28.17;;;;;;;-3.15;100.00;103132.78;5011069;28;20881;-37
2024/01/12 02:21:08;;;;;;;29.10;27.40;;;;;;;-3.14;100.00;103131.03;5011013;28;20472;-36
2024/01/12 02:23:36;;;;;;;30.73;28.13;;;;;;;-3.16;100.00;103128.47;5011189;28;20436;-36
2024/01/12 02:26:04;;;;;;;28.93;27.03;;;;;;;-3.15;100.00;103124.97;5011611;28;20535;-36
2024/01/12 02:28:32;;;;;;;30.87;28.67;;;;;;;-3.16;100.00;103122.38;5011119;28;20507;-36
2024/01/12 02:31:00;;;;;;;29.83;27.80;;;;;;;-3.15;100.00;103111.06;4998322;28;20461;-35
2024/01/12 02:33:28;;;;;;;31.37;29.00;;;;;;;-3.16;100.00;103112.81;5000364;28;20527;-35
2024/01/12 02:35:56;;;;;;;28.77;26.77;;;;;;;-3.17;100.00;103116.34;5011609;28;20453;-36
2024/01/12 02:38:25;;;;;;;28.07;26.33;;;;;;;-3.18;100.00;103113.78;5013717;28;20456;-36
2024/01/12 02:40:53;;;;;;;29.43;27.63;;;;;;;-3.20;100.00;103116.44;5002260;28;21076;-37
2024/01/12 02:43:21;;;;;;;30.23;28.00;;;;;;;-3.22;100.00;103123.44;4994962;28;20460;-35
2024/01/12 02:45:48;;;;;;;29.23;27.37;;;;;;;-3.24;100.00;103117.44;5013882;28;20435;-35
2024/01/12 02:48:16;;;;;;;29.97;28.07;;;;;;;-3.24;100.00;103125.25;5005798;28;20813;-37
2024/01/12 02:50:44;;;;;;;30.23;27.87;;;;;;;-3.25;100.00;103127.91;5006853;28;20913;-35
2024/01/12 02:53:11;;;;;;;29.50;27.47;;;;;;;-3.28;100.00;103115.81;5000952;28;20961;-37
2024/01/12 02:55:41;;;;;;;30.97;28.77;;;;;;;-3.31;100.00;103118.53;4996001;28;21073;-38
2024/01/12 02:58:08;;;;;;;30.67;28.30;;;;;;;-3.35;100.00;103109.13;5014469;28;20460;-35
2024/01/12 03:00:36;;;;;;;29.43;27.43;;;;;;;-3.37;100.00;103103.06;5006440;28;20477;-37
2024/01/12 03:03:04;;;;;;;30.73;28.23;;;;;;;-3.39;100.00;103097.06;5010067;28;20894;-35
2024/01/12 03:05:32;;;;;;;30.47;28.33;;;;;;;-3.41;100.00;103102.34;5003624;28;20443;-35
2024/01/12 03:08:00;;;;;;;30.63;28.43;;;;;;;-3.42;100.00;103087.59;5009550;28;20457;-35
2024/01/12 03:10:27;;;;;;;29.80;27.90;;;;;;;-3.42;100.00;103078.91;4994468;28;20429;-36
2024/01/12 03:12:56;;;;;;;29.53;27.43;;;;;;;-3.43;100.00;103080.66;4995442;28;20442;-36
2024/01/12 03:15:24;;;;;;;29.17;27.27;;;;;;;-3.43;100.00;103079.78;5010774;28;20464;-41
2024/01/12 03:17:52;;;;;;;29.53;27.53;;;;;;;-3.43;100.00;103062.41;5011874;28;20464;-35
2024/01/12 03:20:20;;;;;;;28.10;26.23;;;;;;;-3.42;100.00;103050.22;4998279;28;20984;-35
2024/01/12 03:22:47;;;;;;;30.67;28.53;;;;;;;-3.39;100.00;103053.56;5017096;28;20483;-37
2024/01/12 03:25:15;;;;;;;29.20;27.40;;;;;;;-3.37;100.00;103043.06;5018212;28;20484;-36
2024/01/12 03:27:43;;;;;;;28.77;26.90;;;;;;;-3.33;100.00;103023.81;5015481;28;20457;-36
2024/01/12 03:30:13;;;;;;;29.30;27.37;;;;;;;-3.30;100.00;103020.25;5010938;28;20440;-37
2024/01/12 03:32:42;;;;;;;29.17;26.97;;;;;;;-3.26;100.00;103022.72;5016512;28;20468;-37
2024/01/12 03:35:10;;;;;;;29.80;27.60;;;;;;;-3.23;100.00;103017.38;5008391;28;20801;-36
2024/01/12 03:37:38;;;;;;;28.97;26.50;;;;;;;-3.21;100.00;103005.13;5014092;28;20567;-36
2024/01/12 03:40:06;;;;;;;29.70;27.70;;;;;;;-3.20;100.00;103003.38;5000571;28;20848;-36
2024/01/12 03:42:34;;;;;;;29.53;27.13;;;;;;;-3.18;100.00;102996.34;5014723;28;20472;-36
2024/01/12 03:45:02;;;;;;;30.03;28.10;;;;;;;-3.15;100.00;102997.09;5008690;28;20433;-36
2024/01/12 03:47:31;;;;;;;31.27;29.17;;;;;;;-3.13;100.00;103002.25;5006788;28;20489;-36
2024/01/12 03:49:59;;;;;;;29.57;27.40;;;;;;;-3.11;100.00;103006.53;4986309;28;20434;-36
2024/01/12 03:52:27;;;;;;;29.90;27.77;;;;;;;-3.09;100.00;103019.50;5002385;28;20433;-36
2024/01/12 03:54:54;;;;;;;32.60;30.00;;;;;;;-3.08;100.00;103013.38;5010984;28;20434;-36
2024/01/12 03:57:22;;;;;;;31.20;29.20;;;;;;;-3.07;100.00;103005.50;5010494;28;20453;-36
2024/01/12 03:59:50;;;;;;;31.40;29.17;;;;;;;-3.05;100.00;103005.44;5014282;28;20468;-36
2024/01/12 04:02:18;;;;;;;32.63;30.23;;;;;;;-3.07;100.00;103013.31;5014233;28;21010;-36
2024/01/12 04:04:47;;;;;;;32.00;29.70;;;;;;;-3.06;100.00;103012.44;5006354;28;20442;-36
2024/01/12 04:07:15;;;;;;;33.00;30.50;;;;;;;-3.05;100.00;103013.28;5006083;28;20453;-37
2024/01/12 04:09:43;;;;;;;32.83;30.43;;;;;;;-3.07;100.00;103008.09;5005402;28;20461;-35
2024/01/12 04:12:11;;;;;;;31.93;29.83;;;;;;;-3.07;100.00;103007.25;5009310;28;20430;-36
2024/01/12 04:14:38;;;;;;;33.00;30.50;;;;;;;-3.09;100.00;103004.69;5011304;28;20437;-35
2024/01/12 04:17:06;;;;;;;30.90;28.60;;;;;;;-3.10;100.00;102997.78;5013110;28;20464;-36
2024/01/12 04:19:34;;;;;;;31.60;29.10;;;;;;;-3.11;100.00;103000.44;5004874;28;20532;-36
2024/01/12 04:22:03;;;;;;;31.60;29.20;;;;;;;-3.13;100.00;102997.88;5013896;28;20473;-36
2024/01/12 04:24:31;;;;;;;30.83;28.60;;;;;;;-3.14;100.00;102983.16;5014206;28;20644;-35
2024/01/12 04:26:59;;;;;;;31.93;29.43;;;;;;;-3.16;100.00;102984.06;5010274;28;20465;-35
2024/01/12 04:29:27;;;;;;;31.77;29.43;;;;;;;-3.17;100.00;102979.78;5000529;28;20465;-36
2024/01/12 04:31:54;;;;;;;33.00;30.53;;;;;;;-3.17;100.00;102975.44;5010036;28;20489;-36
2024/01/12 04:34:22;;;;;;;32.50;30.20;;;;;;;-3.17;100.00;102977.19;5009200;28;20445;-36
2024/01/12 04:36:50;;;;;;;32.93;30.50;;;;;;;-3.17;100.00;102983.25;5011321;28;20481;-36
2024/01/12 04:39:19;;;;;;;33.27;30.87;;;;;;;-3.17;100.00;102980.66;5007891;28;20822;-37
2024/01/12 04:41:47;;;;;;;31.87;29.50;;;;;;;-3.16;100.00;102976.25;5013210;28;20468;-36
2024/01/12 04:44:14;;;;;;;34.70;31.83;;;;;;;-3.16;100.00;102976.25;4999904;28;20473;-36
2024/01/12 04:46:42;;;;;;;33.97;31.33;;;;;;;-3.15;100.00;102981.44;4994591;28;21000;-37
2024/01/12 04:49:10;;;;;;;34.33;31.63;;;;;;;-3.15;100.00;102968.38;5007628;28;20795;-36
2024/01/12 04:51:38;;;;;;;33.83;31.10;;;;;;;-3.15;100.00;102963.16;5001274;28;20503;-37
2024/01/12 04:54:06;;;;;;;36.20;33.30;;;;;;;-3.14;100.00;102972.72;5012271;28;20433;-35
2024/01/12 04:56:35;;;;;;;32.77;30.27;;;;;;;-3.13;100.00;102977.00;5013335;28;20461;-36
2024/01/12 04:59:03;;;;;;;32.77;30.10;;;;;;;-3.14;100.00;102975.31;5000208;28;20462;-36
2024/01/12 05:01:31;;;;;;;33.30;30.50;;;;;;;-3.13;100.00;102977.00;5009520;28;20492;-36
2024/01/12 05:03:58;;;;;;;32.63;30.33;;;;;;;-3.09;100.00;102962.09;5015759;28;20469;-38
2024/01/12 05:06:26;;;;;;;32.10;29.80;;;;;;;-2.98;100.00;102954.72;5015771;28;20885;-36
2024/01/12 05:08:54;;;;;;;33.07;30.30;;;;;;;-2.88;100.00;102953.47;5015150;28;20461;-38
2024/01/12 05:11:25;;;;;;;34.57;30.83;;;;;;;-2.71;100.00;102952.84;5014606;28;20500;-36
2024/01/12 05:13:55;;;;;;;38.17;31.50;;;;;;;-2.58;100.00;102959.31;5012321;28;20465;-37
2024/01/12 05:16:23;;;;;;;39.43;33.10;;;;;;;-2.46;100.00;102967.53;5003109;28;21035;-36
2024/01/12 05:18:50;;;;;;;76.00;37.70;;;;;;;-2.33;100.00;102966.13;5011652;28;20890;-40
2024/01/12 05:21:18;;;;;;;36.63;33.70;;;;;;;-2.22;100.00;102970.09;5014480;28;20527;-39
2024/01/12 05:23:46;;;;;;;35.27;31.93;;;;;;;-2.12;100.00;102961.81;5012048;28;20512;-36
2024/01/12 05:26:14;;;;;;;32.93;29.80;;;;;;;-2.01;100.00;102967.50;5007797;28;20818;-35
2024/01/12 05:28:41;;;;;;;39.87;29.23;;;;;;;-1.91;100.00;102960.97;5012307;28;20473;-36
2024/01/12 05:31:11;;;;;;;31.20;27.90;;;;;;;-1.79;100.00;102967.44;5001540;28;20496;-37
2024/01/12 05:33:39;;;;;;;31.07;28.17;;;;;;;-1.69;100.00;102966.16;5001812;28;20800;-37
2024/01/12 05:36:07;;;;;;;40.93;29.57;;;;;;;-1.59;100.00;102975.34;4993211;28;20768;-36
2024/01/12 05:38:35;;;;;;;31.07;28.00;;;;;;;-1.50;100.00;102976.72;5008280;28;20543;-38
2024/01/12 05:41:02;;;;;;;31.60;28.40;;;;;;;-1.42;100.00;102975.47;5012593;28;20977;-36
2024/01/12 05:43:30;;;;;;;41.00;30.70;;;;;;;-1.36;100.00;102961.28;5011993;28;20552;-36
2024/01/12 05:45:58;;;;;;;47.57;30.57;;;;;;;-1.32;100.00;102952.38;5009770;28;20856;-36
2024/01/12 05:48:29;;;;;;;98.63;42.97;;;;;;;-1.30;100.00;102954.00;5000160;28;20469;-36
2024/01/12 05:50:57;;;;;;;53.87;33.20;;;;;;;-1.26;100.00;102944.25;5002938;28;20528;-38
2024/01/12 05:53:25;;;;;;;50.43;33.80;;;;;;;-1.21;100.00;102947.53;5011787;28;20987;-36
2024/01/12 05:55:54;;;;;;;124.63;42.03;;;;;;;-1.19;100.00;102941.28;5008157;28;20435;-36
2024/01/12 05:58:22;;;;;;;69.27;35.43;;;;;;;-1.14;100.00;102935.88;5005575;28;20785;-36
2024/01/12 06:00:50;;;;;;;56.13;31.90;;;;;;;-1.09;100.00;102938.25;5003306;28;20964;-37
2024/01/12 06:03:17;;;;;;;44.60;31.20;;;;;;;-1.07;100.00;102942.50;4997549;28;20556;-38
2024/01/12 06:05:48;;;;;;;37.40;28.23;;;;;;;-1.05;100.00;102948.56;4991803;28;20438;-36
2024/01/12 06:08:16;;;;;;;35.43;27.60;;;;;;;-1.00;100.00;102943.94;5010995;28;20461;-38
2024/01/12 06:10:44;;;;;;;52.70;32.60;;;;;;;-0.96;100.00;102942.06;5010991;28;20437;-36
2024/01/12 06:13:12;;;;;;;53.53;26.53;;;;;;;-0.93;100.00;102940.16;5011050;28;20803;-36
2024/01/12 06:15:40;;;;;;;91.73;31.97;;;;;;;-0.90;100.00;102944.41;5002806;28;20442;-38
2024/01/12 06:18:08;;;;;;;55.37;29.20;;;;;;;-0.86;100.00;102946.78;4994756;28;20488;-38
2024/01/12 06:20:36;;;;;;;45.77;28.50;;;;;;;-0.83;100.00;102944.03;5003463;28;20438;-36
2024/01/12 06:23:05;;;;;;;52.57;29.20;;;;;;;-0.80;100.00;102943.03;5007365;28;20476;-38
2024/01/12 06:25:36;;;;;;;61.77;30.27;;;;;;;-0.76;100.00;102936.75;4991869;28;20442;-36
2024/01/12 06:28:04;;;;;;;71.07;28.30;;;;;;;-0.74;100.00;102938.38;4990394;28;21150;-37
2024/01/12 06:30:32;;;;;;;94.17;33.33;;;;;;;-0.72;100.00;102935.69;5006542;28;20433;-37
2024/01/12 06:33:00;;;;;;;67.60;28.43;;;;;;;-0.69;100.00;102933.75;5002353;28;20430;-37
2024/01/12 06:35:28;;;;;;;74.33;29.23;;;;;;;-0.65;100.00;102931.84;4996777;28;20503;-37
2024/01/12 06:37:57;;;;;;;91.00;35.40;;;;;;;-0.63;100.00;102919.56;4998571;28;21027;-38
2024/01/12 06:40:26;;;;;;;107.10;31.07;;;;;;;-0.60;100.00;102912.38;5005365;28;20443;-37
2024/01/12 06:42:54;;;;;;;63.17;27.53;;;;;;;-0.56;100.00;102911.31;5002386;28;20487;-38
2024/01/12 06:45:21;;;;;;;42.10;25.20;;;;;;;-0.53;100.00;102907.69;5003172;28;20479;-36
2024/01/12 06:47:49;;;;;;;48.97;28.30;;;;;;;-0.50;100.00;102911.94;5010884;28;20452;-36
2024/01/12 06:50:17;;;;;;;50.63;23.47;;;;;;;-0.47;100.00;102902.16;5007901;28;20442;-36
2024/01/12 06:52:45;;;;;;;25.93;22.53;;;;;;;-0.44;100.00;102901.16;5001807;28;20483;-36
2024/01/12 06:55:12;;;;;;;22.47;20.53;;;;;;;-0.40;100.00;102900.09;4993559;28;20529;-38
2024/01/12 06:57:43;;;;;;;24.73;22.43;;;;;;;-0.37;100.00;102903.44;5000297;28;21004;-36
2024/01/12 07:00:12;;;;;;;23.20;21.60;;;;;;;-0.32;100.00;102898.81;4997059;28;20958;-38
2024/01/12 07:02:39;;;;;;;24.43;22.67;;;;;;;-0.28;100.00;102903.00;4996216;28;20564;-36
2024/01/12 07:05:08;;;;;;;25.27;22.60;;;;;;;-0.24;100.00;102887.97;4991883;28;20442;-36
2024/01/12 07:07:36;;;;;;;25.13;22.60;;;;;;;-0.20;100.00;102892.13;4991087;28;20482;-36
2024/01/12 07:10:04;;;;;;;26.10;23.30;;;;;;;-0.18;100.00;102883.25;5010293;28;20437;-36
2024/01/12 07:12:32;;;;;;;25.70;23.30;;;;;;;-0.17;100.00;102886.72;5011448;28;20806;-36
2024/01/12 07:15:01;;;;;;;25.57;23.37;;;;;;;-0.14;100.00;102878.72;5008556;28;20503;-36
2024/01/12 07:17:29;;;;;;;31.43;22.63;;;;;;;-0.11;100.00;102875.94;4996696;28;20821;-40
2024/01/12 07:19:57;;;;;;;25.20;22.80;;;;;;;-0.10;100.00;102869.78;5001853;28;20441;-36
2024/01/12 07:22:25;;;;;;;25.00;22.80;;;;;;;-0.08;100.00;102879.25;5002576;28;20933;-36
2024/01/12 07:24:52;;;;;;;26.67;24.10;;;;;;;-0.05;100.00;102854.66;4995987;28;20521;-36
2024/01/12 07:27:20;;;;;;;24.57;22.40;;;;;;;-0.04;100.00;102838.00;5014022;28;20457;-37
2024/01/12 07:29:48;;;;;;;25.13;23.13;;;;;;;-0.02;100.00;102831.75;5013736;28;20456;-38
2024/01/12 07:32:17;;;;;;;25.67;23.37;;;;;;;-0.02;100.00;102834.38;5012159;28;20437;-37
2024/01/12 07:34:44;;;;;;;26.43;24.10;;;;;;;-0.01;100.00;102832.59;5003378;28;20432;-38
2024/01/12 07:37:12;;;;;;;25.03;23.00;;;;;;;0.00;100.00;102824.63;5008126;28;20458;-38
2024/01/12 07:39:40;;;;;;;23.90;22.27;;;;;;;0.04;100.00;102819.22;5007467;28;20549;-37
2024/01/12 07:42:07;;;;;;;24.87;22.43;;;;;;;0.09;100.00;102801.50;5011715;28;20437;-38
2024/01/12 07:44:37;;;;;;;24.53;22.60;;;;;;;0.13;100.00;102806.50;5005226;28;20749;-38
2024/01/12 07:47:05;;;;;;;23.03;21.33;;;;;;;0.17;100.00;102801.94;5011431;28;20464;-40
2024/01/12 07:49:34;;;;;;;25.60;23.10;;;;;;;0.21;100.00;102816.63;5011170;28;20515;-39
2024/01/12 07:52:02;;;;;;;23.33;21.97;;;;;;;0.25;100.00;102812.88;5011675;28;20439;-38
2024/01/12 07:54:30;;;;;;;24.80;23.10;;;;;;;0.29;100.00;102819.69;5009883;28;20435;-38
2024/01/12 07:56:58;;;;;;;25.90;23.20;;;;;;;0.36;100.00;102831.56;5002194;28;20485;-37
2024/01/12 07:59:25;;;;;;;24.00;22.10;;;;;;;0.40;100.00;102820.81;5005273;28;21023;-41
2024/01/12 08:01:53;;;;;;;22.70;20.73;;;;;;;0.45;100.00;102824.03;5011408;28;20433;-40
2024/01/12 08:04:21;;;;;;;23.83;21.90;;;;;;;0.51;100.00;102828.09;5011434;28;20519;-40
2024/01/12 08:06:50;;;;;;;23.47;21.40;;;;;;;0.56;100.00;102812.97;5003020;28;20458;-38
2024/01/12 08:09:18;;;;;;;23.80;20.83;;;;;;;0.59;100.00;102809.34;5002874;28;20813;-36
2024/01/12 08:11:46;;;;;;;21.60;20.10;;;;;;;0.63;100.00;102808.25;5011583;28;20516;-40
2024/01/12 08:14:13;;;;;;;27.90;22.00;;;;;;;0.68;100.00;102800.97;5011539;28;20437;-37
2024/01/12 08:16:41;;;;;;;23.37;20.97;;;;;;;0.72;100.00;102792.00;4995001;28;20461;-38
2024/01/12 08:19:09;;;;;;;21.57;20.07;;;;;;;0.77;100.00;102796.06;4991168;28;20892;-38
2024/01/12 08:21:37;;;;;;;21.13;19.57;;;;;;;0.79;100.00;102788.94;5006358;28;20429;-37
2024/01/12 08:24:20;;;;;;;22.30;20.27;;;;;;;0.85;100.00;102785.13;5003002;28;20563;-37
2024/01/12 08:26:47;;;;;;;22.73;21.00;;;;;;;0.90;100.00;102777.84;5002953;28;20869;-39
2024/01/12 08:29:15;;;;;;;23.50;20.40;;;;;;;0.96;100.00;102766.97;5010200;28;20465;-37
2024/01/12 08:31:43;;;;;;;21.27;19.50;;;;;;;1.01;100.00;102783.38;5002732;28;20441;-38
2024/01/12 08:34:11;;;;;;;25.00;22.50;;;;;;;1.04;100.00;102778.78;5002118;28;20491;-37
2024/01/12 08:36:39;;;;;;;24.70;19.50;;;;;;;1.10;100.00;102781.06;4994671;28;20532;-38
2024/01/12 08:39:07;;;;;;;22.00;20.03;;;;;;;1.22;100.00;102782.16;5009160;28;20515;-40
2024/01/12 08:41:36;;;;;;;21.87;19.87;;;;;;;1.31;100.00;102775.53;5009850;28;21012;-37
2024/01/12 08:44:04;;;;;;;27.37;20.37;;;;;;;1.41;100.00;102776.69;5002403;28;20474;-40
2024/01/12 08:46:32;;;;;;;22.23;19.93;;;;;;;1.44;100.00;102779.13;5010200;28;20874;-37
2024/01/12 08:49:00;;;;;;;21.90;20.00;;;;;;;1.51;100.00;102778.72;5007971;28;20549;-37
2024/01/12 08:51:28;;;;;;;24.93;22.20;;;;;;;1.61;100.00;102781.66;4996021;28;20833;-37
2024/01/12 08:53:56;;;;;;;27.00;20.23;;;;;;;1.67;100.00;102779.50;5001889;28;20427;-37
2024/01/12 08:56:23;;;;;;;22.07;20.27;;;;;;;1.76;100.00;102779.91;5005992;28;20537;-37
2024/01/12 08:58:52;;;;;;;26.13;21.30;;;;;;;1.78;100.00;102775.41;4998020;28;20989;-36
2024/01/12 09:01:20;;;;;;;26.07;21.23;;;;;;;1.84;100.00;102770.63;5002349;28;20865;-38
2024/01/12 09:03:48;;;;;;;22.33;20.13;;;;;;;1.90;100.00;102767.63;4993944;28;20477;-40
2024/01/12 09:06:21;;;;;;;26.70;21.03;;;;;;;1.95;100.00;102772.59;4995610;28;20504;-38
2024/01/12 09:08:49;;;;;;;24.13;21.30;;;;;;;2.03;100.00;102768.56;4993319;28;20718;-38
2024/01/12 09:11:16;;;;;;;22.57;20.67;;;;;;;2.13;100.00;102766.25;4982937;28;20933;-38
2024/01/12 09:13:44;;;;;;;23.80;21.23;;;;;;;2.21;100.00;102770.09;4998171;28;20489;-38
2024/01/12 09:16:13;;;;;;;35.57;20.67;;;;;;;2.27;100.00;102763.59;4997914;28;20465;-37
2024/01/12 09:18:43;;;;;;;27.93;20.17;;;;;;;2.35;100.00;102778.94;5004974;28;21163;-40
2024/01/12 09:21:14;;;;;;;24.77;20.10;;;;;;;2.42;100.00;102783.72;5009687;28;20770;-36
2024/01/12 09:23:43;;;;;;;23.73;20.57;;;;;;;2.49;100.00;102769.25;5010168;28;20508;-38
2024/01/12 09:26:11;;;;;;;25.40;20.30;;;;;;;2.54;100.00;102775.06;5001400;28;21257;-40
2024/01/12 09:28:39;;;;;;;26.13;21.00;;;;;;;2.59;100.00;102773.03;5009632;28;20550;-37
2024/01/12 09:31:08;;;;;;;24.93;21.33;;;;;;;2.63;100.00;102769.22;5007316;28;20495;-37
2024/01/12 09:33:37;;;;;;;23.00;20.60;;;;;;;2.64;100.00;102770.94;4998320;28;20426;-36
2024/01/12 09:36:05;;;;;;;22.70;20.33;;;;;;;2.67;100.00;102773.38;4999827;28;20923;-38
2024/01/12 09:38:33;;;;;;;22.07;19.80;;;;;;;2.72;100.00;102765.16;5000630;28;20456;-37
2024/01/12 09:41:03;;;;;;;23.40;21.00;;;;;;;2.69;100.00;102755.69;5009190;28;20507;-37
2024/01/12 09:43:32;;;;;;;25.03;22.47;;;;;;;2.65;100.00;102762.09;5009487;28;20433;-40
2024/01/12 09:46:01;;;;;;;22.73;20.50;;;;;;;2.64;100.00;102762.19;5007316;28;20968;-37
2024/01/12 09:48:30;;;;;;;22.90;20.90;;;;;;;2.60;100.00;102758.88;5001323;28;20449;-37
2024/01/12 09:51:00;;;;;;;26.80;20.90;;;;;;;2.57;100.00;102745.91;5008051;28;20438;-37
2024/01/12 09:53:28;;;;;;;25.27;22.57;;;;;;;2.54;100.00;102754.00;4997598;28;20430;-39
2024/01/12 09:55:56;;;;;;;28.40;23.07;;;;;;;2.56;100.00;102746.88;4994781;28;20469;-38
2024/01/12 09:58:38;;;;;;;24.93;22.73;;;;;;;2.53;100.00;102752.34;5008365;28;20843;-38
2024/01/12 10:01:08;;;;;;;26.50;22.47;;;;;;;2.55;100.00;102737.28;4998457;28;20445;-37
2024/01/12 10:03:38;;;;;;;21.70;19.80;;;;;;;2.61;100.00;102747.41;4995059;28;20987;-40
2024/01/12 10:06:08;;;;;;;25.40;23.00;;;;;;;2.63;100.00;102739.41;4990624;28;20454;-37
2024/01/12 10:08:36;;;;;;;29.37;23.20;;;;;;;2.65;100.00;102722.59;5002789;28;20461;-38
2024/01/12 10:11:05;;;;;;;41.37;22.57;;;;;;;2.78;100.00;102726.13;5008184;28;20943;-36
2024/01/12 10:13:32;;;;;;;25.10;21.30;;;;;;;2.84;100.00;102729.31;5008510;28;20433;-37
2024/01/12 10:16:01;;;;;;;30.50;21.83;;;;;;;2.91;100.00;102723.53;5008198;28;20456;-38
2024/01/12 10:18:29;;;;;;;23.07;20.53;;;;;;;3.07;100.00;102720.78;5008273;28;20938;-37
2024/01/12 10:21:00;;;;;;;39.27;23.50;;;;;;;3.16;100.00;102715.75;5000417;28;20519;-37
2024/01/12 10:23:31;;;;;;;26.03;22.20;;;;;;;3.21;100.00;102710.16;5000450;28;20490;-37
2024/01/12 10:25:59;;;;;;;34.07;21.90;;;;;;;3.26;100.00;102708.06;4999848;28;20552;-37
2024/01/12 10:28:29;;;;;;;23.27;20.83;;;;;;;3.29;100.00;102713.97;4992986;28;20544;-37
2024/01/12 10:30:57;;;;;;;32.70;21.10;;;;;;;3.36;100.00;102703.88;4991283;28;20438;-36
2024/01/12 10:33:25;;;;;;;28.53;21.90;;;;;;;3.42;100.00;102706.09;4993048;28;20484;-37
2024/01/12 10:36:05;;;;;;;24.37;21.93;;;;;;;3.48;100.00;102702.19;4992153;28;20794;-42
2024/01/12 10:38:36;;;;;;;25.13;22.33;;;;;;;3.47;100.00;102706.63;4982061;28;20469;-37
2024/01/12 10:41:06;;;;;;;23.67;20.67;;;;;;;3.37;100.00;102696.81;5004679;28;20437;-37
2024/01/12 10:43:37;;;;;;;23.77;20.90;;;;;;;3.17;100.00;102690.19;4988832;28;21016;-36
2024/01/12 10:46:11;;;;;;;23.97;21.50;;;;;;;3.15;100.00;102690.31;4996496;28;20491;-41
2024/01/12 10:48:47;;;;;;;26.03;23.40;;;;;;;3.13;100.00;102694.00;5002680;28;20595;-41
2024/01/12 10:51:20;;;;;;;33.80;23.23;;;;;;;3.14;100.00;102685.13;5000050;28;20434;-40
2024/01/12 10:53:57;;;;;;;28.67;21.63;;;;;;;3.10;100.00;102687.16;4993929;28;20954;-37
2024/01/12 10:56:26;;;;;;;22.50;20.80;;;;;;;3.14;100.00;102674.59;4997227;28;20520;-39
2024/01/12 10:58:55;;;;;;;24.77;22.30;;;;;;;3.26;100.00;102668.50;4990738;28;20472;-42
2024/01/12 11:01:24;;;;;;;26.43;24.07;;;;;;;3.38;100.00;102665.03;5000177;28;20540;-38
2024/01/12 11:03:52;;;;;;;27.17;23.87;;;;;;;3.53;100.00;102663.16;5000849;28;20438;-37
2024/01/12 11:06:20;;;;;;;25.10;22.50;;;;;;;3.59;100.00;102663.59;5012144;28;20479;-36
2024/01/12 11:08:51;;;;;;;25.37;22.70;;;;;;;3.81;100.00;102645.34;5011959;28;20464;-40